Terminal Aerodrome Forecast
Issued by NWS

Current Version | Previous Version | Text Only | Print | Product List | Glossary On
Versions: 1 2 3 4 5 6 7 8 9 10 11 12 13 14 15 16 17
000
FTUS43 KICT 071120
TAFRSL
TAF
KRSL 071120Z 0712/0812 02011KT 4SM HZ SCT035 BKN120
     FM071800 06010KT 6SM HZ SCT120
     FM080100 08008KT P6SM SCT200=

USA.gov is the U.S. government's official web portal to all federal, state and local government web resources and services.